This is the latest recevied weather packets stored in our database for station/object OK2BOZ-1. If no packets are shown the sender has not sent any weather packets the latest 10 day(s).
| Time | Temp. | Humidity | Pressure | Rain* | Wind** | Luminosity | Snow |
|---|---|---|---|---|---|---|---|
| 1777623920 | 18.33° C | 44% | 1027.1 hPa | - | - | - | - |
| 1777623606 | 17.78° C | 47% | 1027.1 hPa | - | - | - | - |
| 1777623291 | 17.78° C | 45% | 1027.2 hPa | - | - | - | - |
| 1777622976 | 17.22° C | 47% | 1027.2 hPa | - | - | - | - |
| 1777622662 | 17.78° C | 46% | 1027.2 hPa | - | - | - | - |
| 1777622346 | 17.22° C | 48% | 1027.3 hPa | - | - | - | - |
| 1777622032 | 16.67° C | 49% | 1027.3 hPa | - | - | - | - |
| 1777621717 | 17.22° C | 48% | 1027.3 hPa | - | - | - | - |
| 1777621402 | 17.22° C | 48% | 1027.4 hPa | - | - | - | - |
| 1777621087 | 17.22° C | 47% | 1027.5 hPa | - | - | - | - |
| 1777620471 | 16.11° C | 50% | 1027.5 hPa | - | - | - | - |
| 1777620471 | 16.11° C | 50% | 1027.5 hPa | - | - | - | - |
| 1777620471 | 17.22° C | 46% | 1027.5 hPa | - | - | - | - |
| 1777620471 | 17.22° C | 46% | 1027.5 hPa | - | - | - | - |
| 1777619199 | 15.56° C | 51% | 1027.5 hPa | - | - | - | - |
| 1777618884 | 14.44° C | 53% | 1027.5 hPa | - | - | - | - |
| 1777618570 | 13.33° C | 56% | 1027.5 hPa | - | - | - | - |
| 1777616998 | 12.78° C | 57% | 1027.4 hPa | - | - | - | - |
| 1777616684 | 12.22° C | 59% | 1027.4 hPa | - | - | - | - |
| 1777616369 | 11.67° C | 60% | 1027.5 hPa | - | - | - | - |
| 1777616055 | 11.11° C | 61% | 1027.4 hPa | - | - | - | - |
| 1777615741 | 11.11° C | 60% | 1027.4 hPa | - | - | - | - |
| 1777615427 | 10.56° C | 61% | 1027.4 hPa | - | - | - | - |
| 1777614784 | 10.56° C | 63% | 1027.4 hPa | - | - | - | - |
| 1777566146 | 13.33° C | 34% | 1026.5 hPa | - | - | - | - |
* Rain since midnight (hover to see other rain measurements)
** Current wind speed in m/s (hover to see current wind gust speed)